createdAt,value
2018-05-15T00:02:00.728Z,100059.13
2018-05-15T00:04:31.809Z,100056.02
2018-05-15T00:07:02.727Z,100058.80
2018-05-15T00:09:33.715Z,100064.14
2018-05-15T00:12:04.795Z,100063.75
2018-05-15T00:14:35.699Z,100069.09
2018-05-15T00:17:06.684Z,100071.84
2018-05-15T00:19:37.648Z,100065.63
2018-05-15T00:22:08.739Z,100061.50
2018-05-15T00:24:39.771Z,100057.43
2018-05-15T00:27:10.802Z,100041.98
2018-05-15T00:29:41.673Z,100053.13
2018-05-15T00:32:12.206Z,100045.16
2018-05-15T00:34:42.936Z,100054.83
2018-05-15T00:37:14.035Z,100060.56
2018-05-15T00:39:44.745Z,100056.65
2018-05-15T00:42:15.707Z,100053.61
2018-05-15T00:44:46.711Z,100048.37
2018-05-15T00:47:17.411Z,100045.72
2018-05-15T00:49:48.982Z,100044.16
2018-05-15T00:52:20.024Z,100041.33
2018-05-15T00:54:50.776Z,100043.52
2018-05-15T00:57:21.828Z,100040.30
2018-05-15T00:59:52.229Z,100046.02
2018-05-15T01:02:23.056Z,100041.88
2018-05-15T01:04:54.106Z,100046.31
2018-05-15T01:07:24.898Z,100047.66
2018-05-15T01:09:55.698Z,100052.89
2018-05-15T01:12:26.717Z,100047.00
2018-05-15T01:14:57.693Z,100054.81
2018-05-15T01:17:28.707Z,100052.06
2018-05-15T01:19:59.693Z,100052.83
2018-05-15T01:22:30.488Z,100054.50
2018-05-15T01:25:00.978Z,100056.07
2018-05-15T01:27:32.021Z,100049.19
2018-05-15T01:30:02.778Z,100046.03
2018-05-15T01:32:33.814Z,100044.64
2018-05-15T01:35:04.447Z,100045.70
2018-05-15T01:37:36.029Z,100045.56
2018-05-15T01:40:06.759Z,100048.38
2018-05-15T01:42:37.714Z,100045.00
2018-05-15T01:45:08.311Z,100045.00
2018-05-15T01:47:39.201Z,100045.67
2018-05-15T01:50:09.975Z,100038.94
2018-05-15T01:52:40.820Z,100044.64
2018-05-15T01:55:11.635Z,100035.62
2018-05-15T01:57:42.977Z,100040.27
2018-05-15T02:00:13.729Z,100042.66
2018-05-15T02:02:44.718Z,100046.83
2018-05-15T02:05:15.701Z,100044.41
2018-05-15T02:07:46.678Z,100035.44
2018-05-15T02:10:17.719Z,100035.29
2018-05-15T02:12:48.697Z,100033.75
2018-05-15T02:15:19.686Z,100027.28
2018-05-15T02:17:50.668Z,100026.11
2018-05-15T02:20:21.720Z,100024.96
2018-05-15T02:22:52.834Z,100032.17
2018-05-15T02:25:23.653Z,100024.11
2018-05-15T02:27:54.733Z,100024.63
2018-05-15T02:30:24.629Z,100028.61
2018-05-15T02:32:55.747Z,100033.59
2018-05-15T02:35:26.743Z,100029.33
2018-05-15T02:37:57.772Z,100025.44
2018-05-15T02:40:28.730Z,100019.80
2018-05-15T02:42:59.719Z,100031.09
2018-05-15T02:45:30.274Z,100026.44
2018-05-15T02:48:01.081Z,100025.87
2018-05-15T02:50:31.802Z,100024.02
2018-05-15T02:53:02.825Z,100027.44
2018-05-15T02:55:33.626Z,100029.28
2018-05-15T02:58:04.511Z,100024.02
2018-05-15T03:00:35.192Z,100027.02
2018-05-15T03:03:06.002Z,100028.67
2018-05-15T03:05:36.727Z,100022.00
2018-05-15T03:08:07.699Z,100020.02
2018-05-15T03:10:38.648Z,100021.16
2018-05-15T03:13:09.274Z,100023.81
2018-05-15T03:15:39.998Z,100026.23
2018-05-15T03:18:10.818Z,100025.72
2018-05-15T03:20:41.639Z,100009.95
2018-05-15T03:23:12.845Z,100017.74
2018-05-15T03:25:43.807Z,100023.81
2018-05-15T03:28:14.832Z,100021.39
2018-05-15T03:30:45.716Z,100016.83
2018-05-15T03:33:16.686Z,100017.50
2018-05-15T03:35:47.627Z,100011.19
2018-05-15T03:38:18.695Z,100012.84
2018-05-15T03:40:49.697Z,100011.18
2018-05-15T03:43:20.843Z,100015.73
2018-05-15T03:45:51.733Z,100014.68
2018-05-15T03:48:22.763Z,100016.77
2018-05-15T03:50:53.702Z,100014.34
2018-05-15T03:53:24.729Z,100017.66
2018-05-15T03:55:55.712Z,100017.81
2018-05-15T03:58:26.751Z,100017.56
2018-05-15T04:01:08.796Z,100014.99
2018-05-15T04:03:48.832Z,100013.47
2018-05-15T04:06:28.965Z,100013.47
2018-05-15T04:08:59.775Z,100014.66
2018-05-15T04:11:28.751Z,100015.97
2018-05-15T04:13:58.055Z,100015.88
2018-05-15T04:16:27.013Z,100020.28
2018-05-15T04:18:56.212Z,100016.87
2018-05-15T04:21:25.230Z,100016.86
2018-05-15T04:23:54.656Z,100020.77
2018-05-15T04:26:23.959Z,100019.37
2018-05-15T04:28:53.223Z,100027.09
2018-05-15T04:31:22.275Z,100021.95
2018-05-15T04:33:51.290Z,100016.89
2018-05-15T04:36:20.251Z,100011.48
2018-05-15T04:38:49.264Z,100018.11
2018-05-15T04:41:18.218Z,100009.45
2018-05-15T04:43:47.296Z,100018.95
2018-05-15T04:46:16.447Z,100019.69
2018-05-15T04:48:48.148Z,100015.92
2018-05-15T04:51:18.249Z,100022.50
2018-05-15T04:53:48.954Z,100013.94
2018-05-15T04:56:19.905Z,100010.11
2018-05-15T04:58:50.797Z,100011.23
2018-05-15T05:01:21.779Z,100007.73
2018-05-15T05:03:52.714Z,100015.75
2018-05-15T05:06:23.866Z,100013.95
2018-05-15T05:08:54.572Z,100010.75
2018-05-15T05:11:25.674Z,100009.09
2018-05-15T05:13:56.699Z,100010.50
2018-05-15T05:16:27.723Z,100012.48
2018-05-15T05:18:58.660Z,100008.00
2018-05-15T05:21:29.831Z,100001.67
2018-05-15T05:24:00.632Z,100004.82
2018-05-15T05:26:31.774Z,100002.38
2018-05-15T05:29:02.451Z,100005.38
2018-05-15T05:31:34.450Z,100005.14
2018-05-15T05:34:04.954Z,100002.49
2018-05-15T05:36:35.712Z,99998.90
2018-05-15T05:39:07.301Z,99998.22
2018-05-15T05:41:37.275Z,99996.86
2018-05-15T05:44:07.918Z,99995.45
2018-05-15T05:46:38.746Z,99996.61
2018-05-15T05:49:09.701Z,99991.72
2018-05-15T05:51:40.672Z,100002.99
2018-05-15T05:54:11.658Z,100001.08
2018-05-15T05:56:42.834Z,100003.22
2018-05-15T05:59:13.830Z,99999.36
2018-05-15T06:01:44.739Z,100000.81
2018-05-15T06:04:15.730Z,99997.86
2018-05-15T06:06:46.741Z,99995.25
2018-05-15T06:09:17.710Z,99995.20
2018-05-15T06:11:48.690Z,99990.08
2018-05-15T06:14:19.730Z,99996.00
2018-05-15T06:16:50.646Z,99986.56
2018-05-15T06:19:21.547Z,99993.19
2018-05-15T06:21:52.898Z,99987.80
2018-05-15T06:24:23.739Z,99990.55
2018-05-15T06:26:54.914Z,99989.90
2018-05-15T06:29:25.657Z,99984.55
2018-05-15T06:31:57.506Z,99982.89
2018-05-15T06:34:28.157Z,99986.27
2018-05-15T06:37:02.336Z,99982.64
2018-05-15T06:39:31.291Z,99982.58
2018-05-15T06:42:01.400Z,99986.59
2018-05-15T06:44:32.082Z,99983.79
2018-05-15T06:47:02.875Z,99981.81
2018-05-15T06:49:33.714Z,99982.96
2018-05-15T06:52:04.486Z,99979.46
2018-05-15T06:54:35.177Z,99974.95
2018-05-15T06:57:05.971Z,99974.82
2018-05-15T06:59:36.759Z,99974.27
2018-05-15T07:02:07.856Z,99968.36
2018-05-15T07:04:37.979Z,99968.86
2018-05-15T07:07:08.795Z,99971.72
2018-05-15T07:09:39.686Z,99955.63
2018-05-15T07:12:10.794Z,99961.89
2018-05-15T07:14:41.722Z,99962.64
2018-05-15T07:17:12.571Z,99956.12
2018-05-15T07:19:43.668Z,99962.75
2018-05-15T07:22:14.560Z,99952.20
2018-05-15T07:24:45.208Z,99947.84
2018-05-15T07:27:15.895Z,99946.19
2018-05-15T07:29:46.717Z,99945.17
2018-05-15T07:32:17.653Z,99953.23
2018-05-15T07:34:48.661Z,99948.31
2018-05-15T07:37:19.635Z,99950.92
2018-05-15T07:39:50.642Z,99960.08
2018-05-15T07:42:21.639Z,99958.23
2018-05-15T07:44:52.863Z,99948.97
2018-05-15T07:47:23.265Z,99959.09
2018-05-15T07:49:54.090Z,99959.21
2018-05-15T07:52:24.731Z,99953.53
2018-05-15T07:54:55.659Z,99951.30
2018-05-15T07:57:26.645Z,99957.05
2018-05-15T07:59:56.985Z,99946.02
2018-05-15T08:02:27.659Z,99945.41
2018-05-15T08:04:58.630Z,99944.09
2018-05-15T08:07:29.594Z,99943.47
2018-05-15T08:10:00.741Z,99940.15
2018-05-15T08:12:31.658Z,99945.49
2018-05-15T08:15:02.662Z,99946.80
2018-05-15T08:17:34.498Z,99941.60
2018-05-15T08:20:04.306Z,99940.16
2018-05-15T08:22:35.220Z,99942.73
2018-05-15T08:25:06.212Z,99943.20
2018-05-15T08:27:36.159Z,99943.34
2018-05-15T08:30:06.935Z,99939.09
2018-05-15T08:32:37.643Z,99953.86
2018-05-15T08:35:08.690Z,99937.88
2018-05-15T08:37:39.777Z,99937.16
2018-05-15T08:40:10.855Z,99938.63
2018-05-15T08:42:41.678Z,99939.89
2018-05-15T08:45:12.724Z,99933.52
2018-05-15T08:47:43.684Z,99933.66
2018-05-15T08:50:14.894Z,99933.86
2018-05-15T08:52:45.660Z,99938.07
2018-05-15T08:55:16.790Z,99939.91
2018-05-15T08:57:47.670Z,99931.58
2018-05-15T09:00:18.758Z,99930.76
2018-05-15T09:02:49.591Z,99928.35
2018-05-15T09:05:20.762Z,99925.98
2018-05-15T09:07:51.578Z,99921.48
2018-05-15T09:10:22.696Z,99924.59
2018-05-15T09:12:53.232Z,99927.05
2018-05-15T09:15:23.963Z,99923.33
2018-05-15T09:17:54.700Z,99923.20
2018-05-15T09:20:25.610Z,99923.52
2018-05-15T09:22:56.666Z,99920.20
2018-05-15T09:25:27.729Z,99923.61
2018-05-15T09:27:58.747Z,99919.50
2018-05-15T09:30:29.289Z,99912.23
2018-05-15T09:33:00.019Z,99913.39
2018-05-15T09:35:30.746Z,99908.82
2018-05-15T09:38:01.673Z,99904.56
2018-05-15T09:40:32.644Z,99905.17
2018-05-15T09:43:03.649Z,99902.11
2018-05-15T09:45:34.646Z,99893.20
2018-05-15T09:48:05.338Z,99894.13
2018-05-15T09:50:36.946Z,99888.95
2018-05-15T09:53:07.765Z,99891.47
2018-05-15T09:55:38.766Z,99885.20
2018-05-15T09:58:09.652Z,99885.34
2018-05-15T10:00:40.699Z,99886.10
2018-05-15T10:03:11.587Z,99886.61
2018-05-15T10:05:42.710Z,99887.80
2018-05-15T10:08:13.600Z,99883.11
2018-05-15T10:10:45.027Z,99879.41
2018-05-15T10:13:15.739Z,99883.83
2018-05-15T10:15:46.715Z,99881.36
2018-05-15T10:18:17.647Z,99874.71
2018-05-15T10:20:48.614Z,99867.77
2018-05-15T10:23:19.618Z,99864.84
2018-05-15T10:25:50.664Z,99869.08
2018-05-15T10:28:21.183Z,99866.95
2018-05-15T10:30:51.917Z,99870.99
2018-05-15T10:33:22.654Z,99869.81
2018-05-15T10:35:53.691Z,99867.73
2018-05-15T10:38:24.573Z,99877.83
2018-05-15T10:40:55.602Z,99874.92
2018-05-15T10:43:26.622Z,99870.83
2018-05-15T10:45:57.677Z,99866.28
2018-05-15T10:48:28.634Z,99862.33
2018-05-15T10:50:59.742Z,99864.95
2018-05-15T10:53:30.202Z,99856.25
2018-05-15T10:56:00.934Z,99864.69
2018-05-15T10:58:31.884Z,99861.70
2018-05-15T11:01:02.717Z,99865.86
2018-05-15T11:03:33.294Z,99853.86
2018-05-15T11:06:04.353Z,99859.51
2018-05-15T11:08:35.158Z,99855.45
2018-05-15T11:11:05.630Z,99841.59
2018-05-15T11:13:36.639Z,99851.94
2018-05-15T11:16:07.658Z,99848.94
2018-05-15T11:18:45.871Z,99856.61
2018-05-15T11:21:25.871Z,99855.59
2018-05-15T11:24:06.151Z,99852.38
2018-05-15T11:26:35.367Z,99843.70
2018-05-15T11:29:04.329Z,99843.34
2018-05-15T11:31:33.283Z,99841.22
2018-05-15T11:34:02.353Z,99840.72
2018-05-15T11:36:31.663Z,99837.08
2018-05-15T11:39:00.898Z,99845.17
2018-05-15T11:41:29.870Z,99842.88
2018-05-15T11:43:59.165Z,99841.37
2018-05-15T11:46:28.126Z,99835.89
2018-05-15T11:48:57.919Z,99843.75
2018-05-15T11:51:27.863Z,99832.64
2018-05-15T11:53:56.318Z,99825.58
2018-05-15T11:56:25.448Z,99828.88
2018-05-15T11:58:55.539Z,99829.19
2018-05-15T12:01:25.331Z,99826.14
2018-05-15T12:03:56.271Z,99824.74
2018-05-15T12:06:27.190Z,99828.44
2018-05-15T12:08:57.964Z,99828.27
2018-05-15T12:11:28.686Z,99832.69
2018-05-15T12:13:59.724Z,99825.16
2018-05-15T12:16:30.617Z,99817.40
2018-05-15T12:19:01.708Z,99823.09
2018-05-15T12:21:32.582Z,99824.72
2018-05-15T12:24:03.720Z,99821.56
2018-05-15T12:26:34.605Z,99823.39
2018-05-15T12:29:05.780Z,99818.45
2018-05-15T12:31:36.478Z,99818.54
2018-05-15T12:34:07.198Z,99819.36
2018-05-15T12:36:37.870Z,99817.33
2018-05-15T12:39:08.379Z,99816.52
2018-05-15T12:41:39.151Z,99808.45
2018-05-15T12:44:10.027Z,99805.94
2018-05-15T12:46:40.672Z,99812.13
2018-05-15T12:49:11.622Z,99801.13
2018-05-15T12:51:43.074Z,99802.14
2018-05-15T12:54:14.043Z,99804.30
2018-05-15T12:56:44.829Z,99802.84
2018-05-15T12:59:15.641Z,99794.64
2018-05-15T13:01:46.713Z,99792.23
2018-05-15T13:04:18.079Z,99792.94
2018-05-15T13:06:48.795Z,99784.57
2018-05-15T13:09:19.633Z,99790.76
2018-05-15T13:11:50.654Z,99786.06
2018-05-15T13:14:21.723Z,99787.43
2018-05-15T13:16:52.594Z,99778.30
2018-05-15T13:19:23.706Z,99780.98
2018-05-15T13:21:54.574Z,99775.44
2018-05-15T13:24:25.724Z,99779.53
2018-05-15T13:26:55.954Z,99770.45
2018-05-15T13:29:26.734Z,99773.19
2018-05-15T13:31:58.398Z,99766.75
2018-05-15T13:34:29.188Z,99763.98
2018-05-15T13:36:59.858Z,99766.30
2018-05-15T13:39:32.690Z,99755.82
2018-05-15T13:42:01.619Z,99762.73
2018-05-15T13:44:32.254Z,99752.15
2018-05-15T13:47:02.926Z,99754.94
2018-05-15T13:49:33.715Z,99744.38
2018-05-15T13:52:04.656Z,99752.03
2018-05-15T13:54:35.709Z,99744.94
2018-05-15T13:57:06.634Z,99747.87
2018-05-15T13:59:37.693Z,99734.23
2018-05-15T14:02:08.609Z,99738.52
2018-05-15T14:04:39.730Z,99734.20
2018-05-15T14:07:10.599Z,99731.86
2018-05-15T14:09:41.697Z,99743.66
2018-05-15T14:12:12.578Z,99731.63
2018-05-15T14:14:43.664Z,99731.61
2018-05-15T14:17:14.163Z,99736.84
2018-05-15T14:19:44.878Z,99735.38
2018-05-15T14:22:15.732Z,99734.59
2018-05-15T14:24:46.691Z,99730.09
2018-05-15T14:27:18.537Z,99726.54
2018-05-15T14:29:49.206Z,99727.33
2018-05-15T14:32:20.031Z,99734.09
2018-05-15T14:34:50.849Z,99728.48
2018-05-15T14:37:21.599Z,99727.25
2018-05-15T14:39:52.612Z,99729.72
2018-05-15T14:42:36.224Z,99726.48
2018-05-15T14:45:05.288Z,99728.91
2018-05-15T14:47:34.249Z,99730.79
2018-05-15T14:50:03.185Z,99736.83
2018-05-15T14:52:32.154Z,99732.61
2018-05-15T14:55:01.173Z,99726.94
2018-05-15T14:57:30.215Z,99732.15
2018-05-15T15:00:00.995Z,99725.17
2018-05-15T15:02:31.196Z,99727.36
2018-05-15T15:05:01.874Z,99732.16
2018-05-15T15:07:32.698Z,99729.05
2018-05-15T15:10:03.262Z,99732.13
2018-05-15T15:12:34.029Z,99734.78
2018-05-15T15:15:05.026Z,99731.62
2018-05-15T15:17:35.010Z,99731.16
2018-05-15T15:20:05.713Z,99735.24
2018-05-15T15:22:36.317Z,99728.29
2018-05-15T15:25:07.258Z,99724.09
2018-05-15T15:27:38.079Z,99724.96
2018-05-15T15:30:08.767Z,99727.20
2018-05-15T15:32:40.082Z,99728.17
2018-05-15T15:35:10.798Z,99719.06
2018-05-15T15:37:41.357Z,99728.55
2018-05-15T15:40:11.970Z,99730.66
2018-05-15T15:42:42.775Z,99725.48
2018-05-15T15:45:13.673Z,99731.98
2018-05-15T15:47:44.685Z,99722.14
2018-05-15T15:50:15.766Z,99718.23
2018-05-15T15:52:46.763Z,99728.42
2018-05-15T15:55:17.662Z,99724.03
2018-05-15T15:57:48.774Z,99723.16
2018-05-15T16:00:19.668Z,99720.17
2018-05-15T16:02:50.725Z,99721.84
2018-05-15T16:05:21.778Z,99724.53
2018-05-15T16:07:52.642Z,99724.69
2018-05-15T16:10:23.642Z,99724.84
2018-05-15T16:12:54.390Z,99723.61
2018-05-15T16:15:25.086Z,99715.51
2018-05-15T16:17:55.142Z,99718.78
2018-05-15T16:20:25.871Z,99741.34
2018-05-15T16:22:56.644Z,99755.71
2018-05-15T16:25:27.649Z,99772.52
2018-05-15T16:27:58.734Z,99787.28
2018-05-15T16:30:29.631Z,99782.66
2018-05-15T16:33:00.633Z,99794.11
2018-05-15T16:35:31.627Z,99793.98
2018-05-15T16:38:02.335Z,99805.38
2018-05-15T16:40:33.077Z,99806.22
2018-05-15T16:43:03.864Z,99806.88
2018-05-15T16:45:33.970Z,99818.74
2018-05-15T16:48:04.757Z,99823.55
2018-05-15T16:50:35.710Z,99820.70
2018-05-15T16:53:06.772Z,99825.73
2018-05-15T16:55:37.626Z,99829.20
2018-05-15T16:58:08.750Z,99825.11
2018-05-15T17:00:39.610Z,99833.66
2018-05-15T17:03:10.777Z,99834.24
2018-05-15T17:05:41.701Z,99828.87
2018-05-15T17:08:12.747Z,99821.38
2018-05-15T17:10:43.688Z,99823.21
2018-05-15T17:13:14.964Z,99823.05
2018-05-15T17:15:45.654Z,99829.03
2018-05-15T17:18:16.329Z,99824.81
2018-05-15T17:20:48.314Z,99824.58
2018-05-15T17:23:18.393Z,99825.08
2018-05-15T17:25:49.147Z,99823.58
2018-05-15T17:28:19.975Z,99821.94
2018-05-15T17:30:50.687Z,99814.69
2018-05-15T17:33:21.769Z,99814.30
2018-05-15T17:35:52.295Z,99812.02
2018-05-15T17:38:23.035Z,99814.90
2018-05-15T17:40:53.800Z,99805.62
2018-05-15T17:43:24.884Z,99811.94
2018-05-15T17:59:08.951Z,99805.50
2018-05-15T18:01:38.907Z,99801.45
2018-05-15T18:04:07.992Z,99791.06
2018-05-15T18:06:37.231Z,99794.44
2018-05-15T18:09:05.664Z,99800.34
2018-05-15T18:11:35.193Z,99796.74
2018-05-15T18:14:04.304Z,99800.95
2018-05-15T18:16:33.360Z,99795.48
2018-05-15T18:19:02.693Z,99785.31
2018-05-15T18:21:32.583Z,99785.73
2018-05-15T18:24:04.552Z,99790.27
2018-05-15T18:26:35.052Z,99779.36
2018-05-15T18:29:04.296Z,99778.13
2018-05-15T18:31:35.607Z,99779.15
2018-05-15T18:34:04.802Z,99783.79
2018-05-15T18:36:34.028Z,99777.59
2018-05-15T18:39:04.339Z,99789.85
2018-05-15T18:41:33.825Z,99791.19
2018-05-15T18:44:02.942Z,99790.66
2018-05-15T18:46:32.684Z,99786.75
2018-05-15T18:49:02.433Z,99792.00
2018-05-15T18:51:33.496Z,99794.17
2018-05-15T18:54:04.441Z,99796.12
2018-05-15T18:56:33.920Z,99800.73
2018-05-15T18:59:03.284Z,99792.81
2018-05-15T19:01:32.315Z,99790.12
2018-05-15T19:04:02.290Z,99794.63
2018-05-15T19:06:31.398Z,99790.20
2018-05-15T19:09:00.547Z,99785.64
2018-05-15T19:11:29.839Z,99789.84
2018-05-15T19:13:58.951Z,99783.87
2018-05-15T19:16:28.364Z,99787.85
2018-05-15T19:18:57.953Z,99787.64
2018-05-15T19:21:27.107Z,99787.52
2018-05-15T19:23:57.097Z,99790.40
2018-05-15T19:26:26.671Z,99785.66
2018-05-15T19:28:55.822Z,99787.28
2018-05-15T19:31:30.578Z,99785.73
2018-05-15T19:34:00.296Z,99791.50
2018-05-15T19:36:32.273Z,99793.96
2018-05-15T19:39:06.829Z,99798.05
2018-05-15T19:41:36.640Z,99797.87
2018-05-15T19:44:07.347Z,99803.32
2018-05-15T19:46:36.509Z,99798.36
2018-05-15T19:49:05.955Z,99794.14
2018-05-15T19:51:35.398Z,99797.73
2018-05-15T19:54:09.922Z,99793.94
2018-05-15T19:56:39.093Z,99788.70
2018-05-15T19:59:08.496Z,99785.47
2018-05-15T20:01:37.478Z,99791.62
2018-05-15T20:04:06.583Z,99786.56
2018-05-15T20:06:36.068Z,99785.63
2018-05-15T20:09:06.266Z,99788.40
2018-05-15T20:11:35.475Z,99787.59
2018-05-15T20:14:06.032Z,99778.63
2018-05-15T20:16:35.469Z,99777.19
2018-05-15T20:19:04.468Z,99776.62
2018-05-15T20:21:33.927Z,99776.73
2018-05-15T20:24:03.191Z,99778.77
2018-05-15T20:26:32.371Z,99777.72
2018-05-15T20:29:01.789Z,99770.73
2018-05-15T20:31:30.812Z,99770.83
2018-05-15T20:34:01.011Z,99770.09
2018-05-15T20:36:30.955Z,99771.64
2018-05-15T20:38:59.982Z,99770.41
2018-05-15T20:41:29.291Z,99760.44
2018-05-15T20:44:00.013Z,99758.95
2018-05-15T20:46:29.307Z,99763.56
2018-05-15T20:48:58.629Z,99758.33
2018-05-15T20:51:27.766Z,99760.27
2018-05-15T20:53:57.760Z,99753.38
2018-05-15T20:56:26.838Z,99751.16
2018-05-15T20:58:55.920Z,99746.42
2018-05-15T21:01:25.468Z,99750.22
2018-05-15T21:03:54.540Z,99745.05
2018-05-15T21:06:24.018Z,99748.36
2018-05-15T21:08:53.163Z,99741.54
2018-05-15T21:11:22.511Z,99737.81
2018-05-15T21:13:51.900Z,99729.91
2018-05-15T21:16:20.964Z,99736.59
2018-05-15T21:18:50.057Z,99732.47
2018-05-15T21:21:19.157Z,99728.65
2018-05-15T21:23:49.148Z,99731.42
2018-05-15T21:26:20.282Z,99733.84
2018-05-15T21:28:49.361Z,99733.84
2018-05-15T21:31:18.535Z,99723.73
2018-05-15T21:33:47.625Z,99736.55
2018-05-15T21:36:17.039Z,99725.98
2018-05-15T21:38:46.237Z,99731.11
2018-05-15T21:41:15.519Z,99725.48
2018-05-15T21:43:44.612Z,99733.81
2018-05-15T21:46:15.026Z,99726.47
2018-05-15T21:48:44.129Z,99723.48
2018-05-15T21:51:13.168Z,99740.03
2018-05-15T21:53:43.109Z,99733.25
2018-05-15T21:56:12.256Z,99730.27
2018-05-15T21:58:41.940Z,99738.59
2018-05-15T22:01:10.620Z,99734.17
2018-05-15T22:03:39.727Z,99725.73
2018-05-15T22:06:08.883Z,99733.43
2018-05-15T22:08:37.928Z,99728.62
2018-05-15T22:11:14.808Z,99726.44
2018-05-15T22:13:54.905Z,99725.73
2018-05-15T22:16:34.960Z,99722.75
2018-05-15T22:19:15.317Z,99719.34
2018-05-15T22:21:56.099Z,99711.02
2018-05-15T22:24:29.452Z,99710.59
2018-05-15T22:26:58.699Z,99706.69
2018-05-15T22:29:27.674Z,99709.86
2018-05-15T22:31:56.676Z,99705.15
2018-05-15T22:34:25.965Z,99711.30
2018-05-15T22:36:56.005Z,99700.83
2018-05-15T22:39:25.515Z,99706.23
2018-05-15T22:41:54.790Z,99701.92
2018-05-15T22:44:23.895Z,99705.01
2018-05-15T22:46:53.217Z,99701.84
2018-05-15T22:49:22.667Z,99706.88
2018-05-15T22:51:51.870Z,99699.88
2018-05-15T22:54:20.939Z,99695.24
2018-05-15T22:56:50.226Z,99690.92
2018-05-15T22:59:20.123Z,99691.31
2018-05-15T23:01:50.312Z,99680.25
2018-05-15T23:04:19.823Z,99685.66
2018-05-15T23:06:48.932Z,99688.43
2018-05-15T23:09:18.066Z,99675.69
2018-05-15T23:11:47.141Z,99683.30
2018-05-15T23:14:16.511Z,99680.70
2018-05-15T23:16:45.646Z,99672.38
2018-05-15T23:19:16.821Z,99672.17
2018-05-15T23:21:45.882Z,99668.38
2018-05-15T23:24:15.263Z,99664.76
2018-05-15T23:26:44.581Z,99664.09
2018-05-15T23:29:14.227Z,99653.80
2018-05-15T23:31:44.330Z,99656.36
2018-05-15T23:34:13.854Z,99661.17
2018-05-15T23:36:43.424Z,99658.36
2018-05-15T23:39:12.441Z,99668.62
2018-05-15T23:41:43.200Z,99658.64
2018-05-15T23:44:15.379Z,99650.01
2018-05-15T23:46:46.334Z,99658.11
2018-05-15T23:49:16.749Z,99656.67
2018-05-15T23:51:46.640Z,99660.85
2018-05-15T23:54:15.687Z,99664.64
2018-05-15T23:56:44.821Z,99655.16
2018-05-15T23:59:14.554Z,99658.84
